createdAt,value
2022-08-26T00:01:55.057Z,7.28
2022-08-26T00:04:25.298Z,6.22
2022-08-26T00:06:55.663Z,6.43
2022-08-26T00:09:24.656Z,5.57
2022-08-26T00:11:53.937Z,8.15
2022-08-26T00:14:25.045Z,6.72
2022-08-26T00:16:55.907Z,5.50
2022-08-26T00:19:24.105Z,6.35
2022-08-26T00:21:51.534Z,6.95
2022-08-26T00:24:20.901Z,6.70
2022-08-26T00:26:49.382Z,6.00
2022-08-26T00:29:17.607Z,6.28
2022-08-26T00:31:45.594Z,6.43
2022-08-26T00:34:15.325Z,6.38
2022-08-26T00:36:43.102Z,6.15
2022-08-26T00:39:10.511Z,5.70
2022-08-26T00:41:39.886Z,6.10
2022-08-26T00:44:09.089Z,5.47
2022-08-26T00:46:46.819Z,5.25
2022-08-26T00:49:37.478Z,5.03
2022-08-26T00:52:09.702Z,5.75
2022-08-26T00:54:46.723Z,7.07
2022-08-26T00:57:17.792Z,5.68
2022-08-26T00:59:52.902Z,5.82
2022-08-26T01:02:21.720Z,6.25
2022-08-26T01:04:56.326Z,6.40
2022-08-26T01:07:30.274Z,6.95
2022-08-26T01:10:01.197Z,5.55
2022-08-26T01:12:33.703Z,5.88
2022-08-26T01:15:02.204Z,7.82
2022-08-26T01:17:29.951Z,5.53
2022-08-26T01:20:27.589Z,5.75
2022-08-26T01:23:03.141Z,5.35
2022-08-26T01:25:33.357Z,5.57
2022-08-26T01:28:05.851Z,6.43
2022-08-26T01:33:04.838Z,5.55
2022-08-26T01:35:33.042Z,5.80
2022-08-26T01:38:02.254Z,5.70
2022-08-26T01:40:34.089Z,5.63
2022-08-26T01:43:04.052Z,5.38
2022-08-26T01:45:34.502Z,6.45
2022-08-26T01:48:08.986Z,6.32
2022-08-26T01:50:38.813Z,4.88
2022-08-26T01:53:11.363Z,5.95
2022-08-26T01:55:43.047Z,6.15
2022-08-26T01:58:17.867Z,5.20
2022-08-26T02:00:46.880Z,7.82
2022-08-26T02:03:17.317Z,6.13
2022-08-26T02:05:48.769Z,5.43
2022-08-26T02:08:24.919Z,5.22
2022-08-26T02:10:55.275Z,7.30
2022-08-26T02:13:25.424Z,5.47
2022-08-26T02:15:53.634Z,6.45
2022-08-26T02:18:22.493Z,6.32
2022-08-26T02:20:54.466Z,5.10
2022-08-26T02:23:24.347Z,6.32
2022-08-26T02:25:55.804Z,5.80
2022-08-26T02:28:26.677Z,7.38
2022-08-26T02:30:55.619Z,5.55
2022-08-26T02:33:23.203Z,5.97
2022-08-26T02:35:50.612Z,5.40
2022-08-26T02:38:18.138Z,5.82
2022-08-26T02:40:45.510Z,5.82
2022-08-26T02:43:15.697Z,5.78
2022-08-26T02:45:43.601Z,6.22
2022-08-26T02:48:15.365Z,5.97
2022-08-26T02:50:43.499Z,5.82
2022-08-26T02:53:13.306Z,5.40
2022-08-26T02:55:40.976Z,7.28
2022-08-26T02:58:09.930Z,6.03
2022-08-26T03:00:39.030Z,5.85
2022-08-26T03:03:20.826Z,5.57
2022-08-26T03:05:51.985Z,5.45
2022-08-26T03:08:20.178Z,6.28
2022-08-26T03:10:48.033Z,6.70
2022-08-26T03:13:16.974Z,5.85
2022-08-26T03:15:44.709Z,7.25
2022-08-26T03:18:16.113Z,4.95
2022-08-26T03:20:43.892Z,5.40
2022-08-26T03:23:12.522Z,6.30
2022-08-26T03:25:40.339Z,6.70
2022-08-26T03:28:07.823Z,5.47
2022-08-26T03:30:45.039Z,5.82
2022-08-26T03:33:14.286Z,5.88
2022-08-26T03:35:43.542Z,6.80
2022-08-26T03:38:11.777Z,5.63
2022-08-26T03:40:39.964Z,5.25
2022-08-26T03:43:09.824Z,4.70
2022-08-26T03:45:38.103Z,6.88
2022-08-26T03:48:05.947Z,6.15
2022-08-26T03:50:34.257Z,7.38
2022-08-26T03:53:04.074Z,5.78
2022-08-26T03:55:33.198Z,7.57
2022-08-26T03:58:01.157Z,6.85
2022-08-26T04:00:28.548Z,8.50
2022-08-26T04:02:56.082Z,5.78
2022-08-26T04:05:24.081Z,7.53
2022-08-26T04:07:52.123Z,5.82
2022-08-26T04:10:29.237Z,7.18
2022-08-26T04:12:59.271Z,6.20
2022-08-26T04:15:27.480Z,6.13
2022-08-26T04:17:55.804Z,7.70
2022-08-26T04:20:23.258Z,6.80
2022-08-26T04:22:51.161Z,7.05
2022-08-26T04:25:18.682Z,7.97
2022-08-26T04:27:48.483Z,6.97
2022-08-26T04:30:16.676Z,6.90
2022-08-26T04:32:44.961Z,6.65
2022-08-26T04:35:12.323Z,7.00
2022-08-26T04:37:43.981Z,6.80
2022-08-26T04:40:11.880Z,8.50
2022-08-26T04:42:39.165Z,6.82
2022-08-26T04:45:10.267Z,8.43
2022-08-26T04:47:38.264Z,7.65
2022-08-26T04:50:07.424Z,9.10
2022-08-26T04:52:36.804Z,7.57
2022-08-26T04:55:08.601Z,7.28
2022-08-26T04:57:36.633Z,7.20
2022-08-26T05:00:06.337Z,6.78
2022-08-26T05:02:34.274Z,7.10
2022-08-26T05:05:02.043Z,6.82
2022-08-26T05:07:30.314Z,7.28
2022-08-26T05:09:59.247Z,8.18
2022-08-26T05:12:28.183Z,8.98
2022-08-26T05:14:55.654Z,7.90
2022-08-26T05:17:23.377Z,8.30
2022-08-26T05:19:50.785Z,7.43
2022-08-26T05:22:18.316Z,6.70
2022-08-26T05:24:46.570Z,6.63
2022-08-26T05:27:14.449Z,6.20
2022-08-26T05:29:42.478Z,8.15
2022-08-26T05:32:11.971Z,7.65
2022-08-26T05:34:39.351Z,6.35
2022-08-26T05:37:10.285Z,6.63
2022-08-26T05:39:38.420Z,6.30
2022-08-26T05:42:08.608Z,7.85
2022-08-26T05:44:55.829Z,5.80
2022-08-26T05:47:24.596Z,7.20
2022-08-26T05:49:51.992Z,6.35
2022-08-26T05:52:20.252Z,7.95
2022-08-26T05:54:47.808Z,6.65
2022-08-26T05:57:16.158Z,6.25
2022-08-26T05:59:45.881Z,7.95
2022-08-26T06:02:13.293Z,10.25
2022-08-26T06:04:41.162Z,5.97
2022-08-26T06:07:11.546Z,5.55
2022-08-26T06:09:40.075Z,5.78
2022-08-26T06:12:07.715Z,6.95
2022-08-26T06:14:36.105Z,7.65
2022-08-26T06:17:03.492Z,8.00
2022-08-26T06:19:33.027Z,6.35
2022-08-26T06:22:23.489Z,6.18
2022-08-26T06:25:10.100Z,5.13
2022-08-26T06:27:37.588Z,7.65
2022-08-26T06:30:05.559Z,6.10
2022-08-26T06:32:33.681Z,7.10
2022-08-26T06:35:01.038Z,6.35
2022-08-26T06:37:28.911Z,8.40
2022-08-26T06:39:56.627Z,8.15
2022-08-26T06:42:25.261Z,6.50
2022-08-26T06:44:52.671Z,7.25
2022-08-26T06:47:20.584Z,6.57
2022-08-26T06:49:48.174Z,6.78
2022-08-26T06:52:22.986Z,6.20
2022-08-26T06:54:51.583Z,6.15
2022-08-26T06:57:20.385Z,7.88
2022-08-26T06:59:48.612Z,5.50
2022-08-26T07:02:18.789Z,6.32
2022-08-26T07:04:47.901Z,7.50
2022-08-26T07:07:15.963Z,5.50
2022-08-26T07:09:43.410Z,9.75
2022-08-26T07:12:10.714Z,8.02
2022-08-26T07:14:38.440Z,5.85
2022-08-26T07:17:09.203Z,8.57
2022-08-26T07:19:39.494Z,7.50
2022-08-26T07:22:07.095Z,5.85
2022-08-26T07:24:45.609Z,6.97
2022-08-26T07:27:16.077Z,8.57
2022-08-26T07:29:45.063Z,7.72
2022-08-26T07:32:17.215Z,8.82
2022-08-26T07:34:45.750Z,6.22
2022-08-26T07:37:13.132Z,7.85
2022-08-26T07:39:41.827Z,7.53
2022-08-26T07:42:13.964Z,5.88
2022-08-26T07:44:41.886Z,6.85
2022-08-26T07:47:24.660Z,7.70
2022-08-26T07:49:55.276Z,8.13
2022-08-26T07:52:26.757Z,12.35
2022-08-26T07:54:59.013Z,11.15
2022-08-26T07:57:27.777Z,12.43
2022-08-26T07:59:56.114Z,7.53
2022-08-26T08:02:25.272Z,8.90
2022-08-26T08:04:53.380Z,10.57
2022-08-26T08:07:21.852Z,7.25
2022-08-26T08:10:11.466Z,8.73
2022-08-26T08:12:41.194Z,8.48
2022-08-26T08:15:10.307Z,8.65
2022-08-26T08:17:38.707Z,6.38
2022-08-26T08:20:08.234Z,8.68
2022-08-26T08:22:35.801Z,11.85
2022-08-26T08:25:06.217Z,10.07
2022-08-26T08:27:37.235Z,10.70
2022-08-26T08:30:05.928Z,8.27
2022-08-26T08:32:33.326Z,9.13
2022-08-26T08:35:00.634Z,6.78
2022-08-26T08:37:28.353Z,10.20
2022-08-26T08:39:55.715Z,11.20
2022-08-26T08:42:26.234Z,8.05
2022-08-26T08:45:04.565Z,6.88
2022-08-26T08:47:37.740Z,6.68
2022-08-26T08:50:31.001Z,9.50
2022-08-26T08:53:13.096Z,8.95
2022-08-26T08:56:02.793Z,7.50
2022-08-26T08:58:51.570Z,6.00
2022-08-26T09:01:30.496Z,7.93
2022-08-26T09:04:05.418Z,8.48
2022-08-26T09:06:37.371Z,9.63
2022-08-26T09:09:18.994Z,9.40
2022-08-26T09:11:46.496Z,7.30
2022-08-26T09:14:14.046Z,7.53
2022-08-26T09:16:57.369Z,7.78
2022-08-26T09:19:42.139Z,6.88
2022-08-26T09:22:09.934Z,7.47
2022-08-26T09:24:48.226Z,10.20
2022-08-26T09:27:52.287Z,10.13
2022-08-26T09:30:30.976Z,9.95
2022-08-26T09:33:10.953Z,7.90
2022-08-26T09:35:40.516Z,7.30
2022-08-26T09:38:30.595Z,7.13
2022-08-26T09:41:05.165Z,7.10
2022-08-26T09:43:36.789Z,6.80
2022-08-26T09:46:20.534Z,10.32
2022-08-26T09:48:53.051Z,9.75
2022-08-26T09:51:23.552Z,7.00
2022-08-26T09:53:54.460Z,7.28
2022-08-26T09:56:25.965Z,7.30
2022-08-26T09:58:57.175Z,10.13
2022-08-26T10:01:38.440Z,11.65
2022-08-26T10:04:31.343Z,10.60
2022-08-26T10:07:04.830Z,8.77
2022-08-26T10:09:39.121Z,8.52
2022-08-26T10:12:21.266Z,6.55
2022-08-26T10:14:53.891Z,6.72
2022-08-26T10:20:03.415Z,7.95
2022-08-26T10:22:55.338Z,6.28
2022-08-26T10:25:38.096Z,7.80
2022-08-26T10:28:21.490Z,9.18
2022-08-26T10:30:59.668Z,7.03
2022-08-26T10:33:27.240Z,7.40
2022-08-26T10:35:58.825Z,7.53
2022-08-26T10:38:32.466Z,8.13
2022-08-26T10:41:15.837Z,6.18
2022-08-26T10:43:56.243Z,5.10
2022-08-26T10:46:27.268Z,9.45
2022-08-26T10:49:01.080Z,7.78
2022-08-26T10:51:42.196Z,5.72
2022-08-26T10:54:49.953Z,6.00
2022-08-26T10:57:22.110Z,7.00
2022-08-26T11:00:30.172Z,7.18
2022-08-26T11:03:21.655Z,7.28
2022-08-26T11:06:29.633Z,6.85
2022-08-26T11:08:58.134Z,5.82
2022-08-26T11:11:42.116Z,6.65
2022-08-26T11:14:09.491Z,5.97
2022-08-26T11:16:43.406Z,7.63
2022-08-26T11:20:00.792Z,7.47
2022-08-26T11:22:47.554Z,5.30
2022-08-26T11:25:17.627Z,6.40
2022-08-26T11:27:46.356Z,5.53
2022-08-26T11:30:13.790Z,6.05
2022-08-26T11:32:41.053Z,5.70
2022-08-26T11:35:09.963Z,7.28
2022-08-26T11:37:41.231Z,6.72
2022-08-26T11:40:13.073Z,5.78
2022-08-26T11:42:44.316Z,6.43
2022-08-26T11:45:23.584Z,5.95
2022-08-26T11:47:55.370Z,7.07
2022-08-26T11:50:28.632Z,5.80
2022-08-26T11:53:01.998Z,6.28
2022-08-26T11:55:33.473Z,6.55
2022-08-26T11:58:05.038Z,6.78
2022-08-26T12:00:51.032Z,5.95
2022-08-26T12:03:25.429Z,6.10
2022-08-26T12:05:54.244Z,6.32
2022-08-26T12:08:30.625Z,7.38
2022-08-26T12:11:08.683Z,5.57
2022-08-26T12:13:39.357Z,7.53
2022-08-26T12:16:07.616Z,7.80
2022-08-26T12:18:38.594Z,9.50
2022-08-26T12:21:16.301Z,6.78
2022-08-26T12:23:47.171Z,7.43
2022-08-26T12:26:34.710Z,8.02
2022-08-26T12:29:19.761Z,6.43
2022-08-26T12:31:48.335Z,5.35
2022-08-26T12:34:18.125Z,6.57
2022-08-26T12:36:50.754Z,6.20
2022-08-26T12:39:27.789Z,6.45
2022-08-26T12:42:00.468Z,7.35
2022-08-26T12:44:33.526Z,6.90
2022-08-26T12:47:33.867Z,7.13
2022-08-26T12:50:19.757Z,7.25
2022-08-26T12:53:00.629Z,7.47
2022-08-26T12:55:50.373Z,7.70
2022-08-26T12:58:23.631Z,6.40
2022-08-26T13:00:55.290Z,8.77
2022-08-26T13:03:30.992Z,5.73
2022-08-26T13:06:15.926Z,7.78
2022-08-26T13:08:49.777Z,7.22
2022-08-26T13:11:20.667Z,7.75
2022-08-26T13:13:57.574Z,6.68
2022-08-26T13:16:25.909Z,7.93
2022-08-26T13:18:59.157Z,7.18
2022-08-26T13:21:37.818Z,6.57
2022-08-26T13:24:12.219Z,6.35
2022-08-26T13:26:41.232Z,5.85
2022-08-26T13:29:10.590Z,6.50
2022-08-26T13:31:41.095Z,6.22
2022-08-26T13:34:11.261Z,6.78
2022-08-26T13:36:39.184Z,7.70
2022-08-26T13:39:29.617Z,6.35
2022-08-26T13:41:56.970Z,6.85
2022-08-26T13:44:24.493Z,6.47
2022-08-26T13:46:51.871Z,7.25
2022-08-26T13:49:19.242Z,5.82
2022-08-26T13:51:46.623Z,7.53
2022-08-26T13:54:14.097Z,7.25
2022-08-26T13:56:44.255Z,6.82
2022-08-26T13:59:11.589Z,6.25
2022-08-26T14:01:40.056Z,6.40
2022-08-26T14:04:08.487Z,6.72
2022-08-26T14:06:35.780Z,6.45
2022-08-26T14:09:04.094Z,7.20
2022-08-26T14:11:41.194Z,7.07
2022-08-26T14:14:18.779Z,6.95
2022-08-26T14:16:58.695Z,7.32
2022-08-26T14:19:26.945Z,6.47
2022-08-26T14:21:54.296Z,6.57
2022-08-26T14:24:21.924Z,7.38
2022-08-26T14:26:49.217Z,8.00
2022-08-26T14:29:16.934Z,5.95
2022-08-26T14:31:45.818Z,6.57
2022-08-26T14:34:14.118Z,6.97
2022-08-26T14:36:42.683Z,6.88
2022-08-26T14:39:12.135Z,6.88
2022-08-26T14:41:55.136Z,8.25
2022-08-26T14:44:27.756Z,6.70
2022-08-26T14:49:24.385Z,7.93
2022-08-26T14:51:51.694Z,9.80
2022-08-26T14:54:20.869Z,7.57
2022-08-26T14:56:54.125Z,6.57
2022-08-26T14:59:24.085Z,7.15
2022-08-26T15:01:52.345Z,8.60
2022-08-26T15:04:20.343Z,7.05
2022-08-26T15:06:48.718Z,7.03
2022-08-26T15:09:16.416Z,6.88
2022-08-26T15:11:43.749Z,7.10
2022-08-26T15:14:19.171Z,10.93
2022-08-26T15:16:49.564Z,7.57
2022-08-26T15:19:18.262Z,6.22
2022-08-26T15:21:47.069Z,9.90
2022-08-26T15:24:17.937Z,7.13
2022-08-26T15:26:46.584Z,8.93
2022-08-26T15:29:14.470Z,6.88
2022-08-26T15:31:42.070Z,6.53
2022-08-26T15:34:16.169Z,9.18
2022-08-26T15:36:46.518Z,6.80
2022-08-26T15:39:16.126Z,7.40
2022-08-26T15:41:43.619Z,8.07
2022-08-26T15:44:12.393Z,7.32
2022-08-26T15:46:40.837Z,7.65
2022-08-26T15:49:17.561Z,8.20
2022-08-26T15:51:48.049Z,7.18
2022-08-26T15:54:16.806Z,8.15
2022-08-26T15:56:44.730Z,12.60
2022-08-26T15:59:12.361Z,8.25
2022-08-26T16:01:39.869Z,7.43
2022-08-26T16:04:07.611Z,7.13
2022-08-26T16:06:37.736Z,6.82
2022-08-26T16:09:07.016Z,6.85
2022-08-26T16:11:36.097Z,6.43
2022-08-26T16:14:04.688Z,6.13
2022-08-26T16:16:32.564Z,6.68
2022-08-26T16:19:03.260Z,6.25
2022-08-26T16:21:34.293Z,7.47
2022-08-26T16:24:03.318Z,7.18
2022-08-26T16:26:34.033Z,6.63
2022-08-26T16:29:03.700Z,6.88
2022-08-26T16:31:31.136Z,7.10
2022-08-26T16:33:58.599Z,6.65
2022-08-26T16:36:25.977Z,6.32
2022-08-26T16:38:56.253Z,7.88
2022-08-26T16:41:26.495Z,7.35
2022-08-26T16:43:54.238Z,6.53
2022-08-26T16:46:25.495Z,6.55
2022-08-26T16:48:56.032Z,5.88
2022-08-26T16:51:26.903Z,6.07
2022-08-26T16:53:56.292Z,9.88
2022-08-26T16:56:30.651Z,7.88
2022-08-26T16:59:07.087Z,8.43
2022-08-26T17:01:34.555Z,6.18
2022-08-26T17:04:01.994Z,6.20
2022-08-26T17:06:29.790Z,6.80
2022-08-26T17:08:57.118Z,10.93
2022-08-26T17:11:24.450Z,7.22
2022-08-26T17:13:51.842Z,11.20
2022-08-26T17:16:21.252Z,6.80
2022-08-26T17:18:50.835Z,7.45
2022-08-26T17:21:18.675Z,8.20
2022-08-26T17:23:46.094Z,9.93
2022-08-26T17:26:13.644Z,8.10
2022-08-26T17:28:41.845Z,7.80
2022-08-26T17:31:11.304Z,10.45
2022-08-26T17:33:39.925Z,9.93
2022-08-26T17:36:08.730Z,20.05
2022-08-26T17:38:37.708Z,22.58
2022-08-26T17:41:12.383Z,22.02
2022-08-26T17:43:40.848Z,20.48
2022-08-26T17:46:10.463Z,14.55
2022-08-26T17:48:39.703Z,15.95
2022-08-26T17:51:13.018Z,13.05
2022-08-26T17:53:41.468Z,12.73
2022-08-26T17:56:11.047Z,13.52
2022-08-26T17:58:38.918Z,12.57
2022-08-26T18:01:06.895Z,14.15
2022-08-26T18:03:35.256Z,11.07
2022-08-26T18:06:07.996Z,11.20
2022-08-26T18:08:35.351Z,10.27
2022-08-26T18:11:03.026Z,11.85
2022-08-26T18:13:30.365Z,9.38
2022-08-26T18:15:57.760Z,10.73
2022-08-26T18:18:25.089Z,12.05
2022-08-26T18:21:01.263Z,8.15
2022-08-26T18:23:29.157Z,8.90
2022-08-26T18:25:58.815Z,12.88
2022-08-26T18:28:26.209Z,9.70
2022-08-26T18:30:53.811Z,10.85
2022-08-26T18:33:24.402Z,9.77
2022-08-26T18:35:52.674Z,12.30
2022-08-26T18:38:20.057Z,11.45
2022-08-26T18:40:49.752Z,9.55
2022-08-26T18:43:17.402Z,10.80
2022-08-26T18:45:44.909Z,12.30
2022-08-26T18:48:15.229Z,12.13
2022-08-26T18:50:46.998Z,12.43
2022-08-26T18:53:15.636Z,9.82
2022-08-26T18:55:42.992Z,12.07
2022-08-26T18:58:10.797Z,9.70
2022-08-26T19:00:38.313Z,9.43
2022-08-26T19:03:18.467Z,11.40
2022-08-26T19:05:46.382Z,8.75
2022-08-26T19:08:13.869Z,10.85
2022-08-26T19:10:41.460Z,9.60
2022-08-26T19:13:09.846Z,8.75
2022-08-26T19:15:42.573Z,10.90
2022-08-26T19:18:11.931Z,10.98
2022-08-26T19:20:46.400Z,8.10
2022-08-26T19:23:31.092Z,9.68
2022-08-26T19:26:03.777Z,7.97
2022-08-26T19:28:31.656Z,12.13
2022-08-26T19:30:59.890Z,7.85
2022-08-26T19:33:28.320Z,9.25
2022-08-26T19:35:55.963Z,9.13
2022-08-26T19:38:24.108Z,7.20
2022-08-26T19:40:54.093Z,10.10
2022-08-26T19:43:21.424Z,14.30
2022-08-26T19:45:50.207Z,7.70
2022-08-26T19:48:17.652Z,10.55
2022-08-26T19:50:46.244Z,9.32
2022-08-26T19:53:13.645Z,8.00
2022-08-26T19:55:41.196Z,10.32
2022-08-26T19:58:11.623Z,8.93
2022-08-26T20:00:39.760Z,11.80
2022-08-26T20:03:08.589Z,11.15
2022-08-26T20:05:43.246Z,10.18
2022-08-26T20:08:22.092Z,11.40
2022-08-26T20:10:51.412Z,9.75
2022-08-26T20:13:18.734Z,10.50
2022-08-26T20:15:46.076Z,11.10
2022-08-26T20:18:31.855Z,10.63
2022-08-26T20:21:17.672Z,9.23
2022-08-26T20:23:45.835Z,12.65
2022-08-26T20:26:13.331Z,8.60
2022-08-26T20:28:42.987Z,10.88
2022-08-26T20:31:10.535Z,11.10
2022-08-26T20:33:46.580Z,9.38
2022-08-26T20:36:15.391Z,7.70
2022-08-26T20:38:42.802Z,12.07
2022-08-26T20:41:10.601Z,7.47
2022-08-26T20:43:37.904Z,8.43
2022-08-26T20:46:08.344Z,9.32
2022-08-26T20:48:45.173Z,8.98
2022-08-26T20:51:12.820Z,7.55
2022-08-26T20:53:40.349Z,8.63
2022-08-26T20:56:09.426Z,14.13
2022-08-26T20:58:37.742Z,9.57
2022-08-26T21:01:08.083Z,10.15
2022-08-26T21:03:36.899Z,10.32
2022-08-26T21:06:04.339Z,9.50
2022-08-26T21:08:33.263Z,8.95
2022-08-26T21:11:02.015Z,12.07
2022-08-26T21:13:39.193Z,7.95
2022-08-26T21:16:19.840Z,10.68
2022-08-26T21:18:47.801Z,12.55
2022-08-26T21:21:15.117Z,10.13
2022-08-26T21:23:42.479Z,10.13
2022-08-26T21:26:13.141Z,11.70
2022-08-26T21:28:42.600Z,11.23
2022-08-26T21:31:12.468Z,12.20
2022-08-26T21:33:40.488Z,8.57
2022-08-26T21:36:09.091Z,10.90
2022-08-26T21:38:37.063Z,12.60
2022-08-26T21:41:08.310Z,9.23
2022-08-26T21:43:36.770Z,7.93
2022-08-26T21:46:11.573Z,10.00
2022-08-26T21:48:40.810Z,8.18
2022-08-26T21:51:09.996Z,7.13
2022-08-26T21:53:37.565Z,7.78
2022-08-26T21:56:10.604Z,7.70
2022-08-26T21:58:38.877Z,9.55
2022-08-26T22:01:11.716Z,8.43
2022-08-26T22:03:46.830Z,9.50
2022-08-26T22:06:17.449Z,9.43
2022-08-26T22:08:44.951Z,7.50
2022-08-26T22:11:13.288Z,7.10
2022-08-26T22:13:42.115Z,8.10
2022-08-26T22:16:10.280Z,9.38
2022-08-26T22:18:38.673Z,10.18
2022-08-26T22:21:09.329Z,6.65
2022-08-26T22:23:38.184Z,9.32
2022-08-26T22:26:08.002Z,12.55
2022-08-26T22:28:36.413Z,11.05
2022-08-26T22:31:03.878Z,6.38
2022-08-26T22:33:31.201Z,8.15
2022-08-26T22:35:58.495Z,10.20
2022-08-26T22:38:26.231Z,9.30
2022-08-26T22:40:56.504Z,6.30
2022-08-26T22:43:25.233Z,6.88
2022-08-26T22:45:53.518Z,7.20
2022-08-26T22:48:23.980Z,7.70
2022-08-26T22:50:58.273Z,6.00
2022-08-26T22:53:28.085Z,6.82
2022-08-26T22:55:55.391Z,7.38
2022-08-26T22:58:30.202Z,6.95
2022-08-26T23:00:59.344Z,7.15
2022-08-26T23:03:27.805Z,5.57
2022-08-26T23:05:55.978Z,7.00
2022-08-26T23:08:25.001Z,6.82
2022-08-26T23:10:52.475Z,7.30
2022-08-26T23:13:20.509Z,9.15
2022-08-26T23:15:47.830Z,5.60
2022-08-26T23:18:16.359Z,7.13
2022-08-26T23:20:43.790Z,5.55
2022-08-26T23:23:11.090Z,5.22
2022-08-26T23:25:38.396Z,5.18
2022-08-26T23:28:08.754Z,7.45
2022-08-26T23:30:36.156Z,6.63
2022-08-26T23:33:03.616Z,9.77
2022-08-26T23:35:31.216Z,6.85
2022-08-26T23:37:59.315Z,5.63
2022-08-26T23:40:32.206Z,6.55
2022-08-26T23:43:03.372Z,5.78
2022-08-26T23:45:31.955Z,5.97
2022-08-26T23:47:59.305Z,7.00
2022-08-26T23:50:48.294Z,5.53
2022-08-26T23:53:20.066Z,5.78
2022-08-26T23:55:49.893Z,5.45
2022-08-26T23:58:18.905Z,5.22
